createdAt,value
2019-04-21T00:02:18.641Z,10.80
2019-04-21T00:04:56.870Z,10.83
2019-04-21T00:07:36.482Z,11.00
2019-04-21T00:10:12.069Z,11.33
2019-04-21T00:12:38.861Z,10.50
2019-04-21T00:15:02.202Z,10.93
2019-04-21T00:17:24.911Z,10.93
2019-04-21T00:20:09.106Z,10.40
2019-04-21T00:22:43.147Z,9.40
2019-04-21T00:25:20.991Z,9.17
2019-04-21T00:27:48.772Z,9.80
2019-04-21T00:30:32.961Z,9.87
2019-04-21T00:32:50.232Z,9.97
2019-04-21T00:35:13.386Z,9.20
2019-04-21T00:38:00.538Z,8.37
2019-04-21T00:40:34.657Z,7.57
2019-04-21T00:42:59.931Z,7.97
2019-04-21T00:45:29.079Z,7.83
2019-04-21T00:48:06.954Z,8.40
2019-04-21T00:50:50.965Z,7.75
2019-04-21T00:53:24.546Z,8.53
2019-04-21T00:55:51.608Z,8.03
2019-04-21T00:58:28.006Z,8.77
2019-04-21T01:00:58.041Z,7.78
2019-04-21T01:03:26.570Z,8.83
2019-04-21T01:05:57.621Z,8.03
2019-04-21T01:08:31.205Z,7.97
2019-04-21T01:10:57.024Z,7.90
2019-04-21T01:13:52.102Z,8.03
2019-04-21T01:16:10.170Z,7.80
2019-04-21T01:18:38.135Z,7.85
2019-04-21T01:20:48.344Z,7.77
2019-04-21T01:23:19.213Z,8.03
2019-04-21T01:26:05.160Z,7.83
2019-04-21T01:28:39.850Z,8.10
2019-04-21T01:31:14.970Z,8.33
2019-04-21T01:33:54.327Z,8.33
2019-04-21T01:36:14.581Z,8.10
2019-04-21T01:38:59.095Z,7.58
2019-04-21T01:41:29.288Z,8.50
2019-04-21T01:43:57.882Z,8.20
2019-04-21T01:46:28.154Z,10.03
2019-04-21T01:48:57.036Z,12.30
2019-04-21T01:51:45.612Z,8.00
2019-04-21T01:54:38.613Z,7.13
2019-04-21T01:57:11.438Z,7.60
2019-04-21T01:59:34.924Z,7.67
2019-04-21T02:02:18.427Z,7.50
2019-04-21T02:04:47.394Z,7.43
2019-04-21T02:07:15.245Z,7.80
2019-04-21T02:09:51.272Z,8.27
2019-04-21T02:12:20.986Z,7.93
2019-04-21T02:14:59.243Z,7.93
2019-04-21T02:17:24.624Z,8.17
2019-04-21T02:19:53.773Z,8.20
2019-04-21T02:22:35.236Z,7.77
2019-04-21T02:25:06.379Z,8.37
2019-04-21T02:27:29.937Z,7.03
2019-04-21T02:30:11.546Z,8.47
2019-04-21T02:32:48.132Z,8.67
2019-04-21T02:35:30.545Z,8.50
2019-04-21T02:37:54.786Z,9.20
2019-04-21T02:40:25.491Z,10.23
2019-04-21T02:42:59.867Z,12.30
2019-04-21T02:45:25.130Z,11.73
2019-04-21T02:48:11.349Z,9.17
2019-04-21T02:50:26.126Z,9.00
2019-04-21T03:00:34.603Z,8.23
2019-04-21T03:03:36.356Z,9.90
2019-04-21T03:06:18.663Z,9.50
2019-04-21T03:11:14.475Z,8.87
2019-04-21T03:13:56.774Z,7.80
2019-04-21T03:16:22.865Z,8.93
2019-04-21T03:21:20.488Z,8.90
2019-04-21T03:23:57.898Z,8.60
2019-04-21T03:26:42.750Z,7.60
2019-04-21T03:29:03.656Z,8.67
2019-04-21T03:36:56.525Z,8.80
2019-04-21T03:39:11.970Z,7.93
2019-04-21T03:42:07.292Z,8.20
2019-04-21T03:46:55.663Z,13.33
2019-04-21T03:49:28.091Z,10.50
2019-04-21T03:51:59.353Z,11.30
2019-04-21T03:54:27.053Z,9.70
2019-04-21T03:59:16.573Z,8.80
2019-04-21T04:05:15.119Z,8.03
2019-04-21T04:10:31.698Z,9.00
2019-04-21T04:12:52.175Z,10.50
2019-04-21T04:15:32.857Z,9.77
2019-04-21T04:17:54.382Z,9.83
2019-04-21T04:23:08.123Z,10.40
2019-04-21T04:28:14.123Z,8.17
2019-04-21T04:30:39.465Z,7.90
2019-04-21T04:32:56.661Z,8.63
2019-04-21T04:35:42.388Z,8.80
2019-04-21T04:38:12.863Z,8.77
2019-04-21T04:41:05.902Z,8.60
2019-04-21T04:43:33.037Z,8.60
2019-04-21T04:46:02.661Z,9.55
2019-04-21T04:48:39.393Z,8.73
2019-04-21T04:51:12.198Z,8.33
2019-04-21T04:56:10.815Z,10.10
2019-04-21T04:59:10.607Z,12.90
2019-04-21T05:01:29.938Z,10.87
2019-04-21T05:03:52.595Z,9.20
2019-04-21T05:09:03.338Z,9.83
2019-04-21T05:14:02.788Z,13.57
2019-04-21T05:23:51.075Z,8.77
2019-04-21T05:26:18.878Z,8.60
2019-04-21T05:28:49.804Z,8.23
2019-04-21T05:31:56.406Z,8.80
2019-04-21T05:34:42.697Z,9.43
2019-04-21T05:37:14.342Z,9.83
2019-04-21T05:40:05.914Z,10.23
2019-04-21T05:42:44.435Z,9.77
2019-04-21T05:45:21.133Z,10.27
2019-04-21T05:50:42.947Z,10.08
2019-04-21T05:53:14.901Z,9.13
2019-04-21T05:58:11.603Z,8.83
2019-04-21T06:01:18.313Z,9.47
2019-04-21T06:03:36.845Z,10.60
2019-04-21T06:08:53.667Z,9.20
2019-04-21T06:11:14.780Z,9.53
2019-04-21T06:13:58.363Z,9.50
2019-04-21T06:16:20.156Z,10.40
2019-04-21T06:18:55.935Z,9.60
2019-04-21T06:21:16.484Z,9.67
2019-04-21T06:23:51.533Z,10.43
2019-04-21T06:28:59.310Z,9.57
2019-04-21T06:31:58.104Z,9.00
2019-04-21T06:33:58.805Z,8.70
2019-04-21T06:36:42.711Z,8.73
2019-04-21T06:41:39.771Z,7.80
2019-04-21T06:46:44.843Z,8.00
2019-04-21T06:49:14.285Z,7.27
2019-04-21T06:51:46.882Z,6.87
2019-04-21T06:54:23.489Z,6.57
2019-04-21T06:56:51.723Z,6.72
2019-04-21T06:59:21.018Z,7.53
2019-04-21T07:02:05.346Z,7.40
2019-04-21T07:04:29.616Z,8.63
2019-04-21T07:06:59.272Z,6.90
2019-04-21T07:09:31.890Z,6.90
2019-04-21T07:12:02.266Z,6.70
2019-04-21T07:14:40.907Z,6.43
2019-04-21T07:17:15.645Z,6.73
2019-04-21T07:19:40.992Z,6.70
2019-04-21T07:22:12.352Z,7.13
2019-04-21T07:24:43.483Z,6.40
2019-04-21T07:27:26.982Z,7.40
2019-04-21T07:29:53.420Z,7.03
2019-04-21T07:32:20.766Z,6.60
2019-04-21T07:34:57.834Z,6.75
2019-04-21T07:37:31.633Z,6.77
2019-04-21T07:39:54.608Z,7.60
2019-04-21T07:42:25.403Z,6.43
2019-04-21T07:44:53.473Z,6.33
2019-04-21T07:47:39.593Z,6.80
2019-04-21T07:50:24.125Z,7.40
2019-04-21T07:53:14.538Z,6.70
2019-04-21T07:58:11.179Z,6.50
2019-04-21T08:03:13.799Z,6.53
2019-04-21T08:05:53.040Z,6.17
2019-04-21T08:08:17.904Z,5.97
2019-04-21T08:10:50.668Z,6.70
2019-04-21T08:13:31.622Z,6.13
2019-04-21T08:15:52.826Z,5.87
2019-04-21T08:18:28.788Z,5.97
2019-04-21T08:20:54.802Z,5.55
2019-04-21T08:28:32.052Z,4.90
2019-04-21T08:31:04.848Z,4.80
2019-04-21T08:33:38.707Z,4.63
2019-04-21T08:38:51.563Z,4.87
2019-04-21T08:41:12.432Z,4.30
2019-04-21T08:43:51.546Z,4.67
2019-04-21T08:46:21.493Z,4.90
2019-04-21T08:48:55.480Z,4.50
2019-04-21T08:51:30.173Z,4.60
2019-04-21T08:54:01.405Z,4.50
2019-04-21T08:57:05.970Z,4.60
2019-04-21T08:59:58.659Z,4.23
2019-04-21T09:02:35.280Z,4.37
2019-04-21T09:05:14.170Z,4.60
2019-04-21T09:07:44.681Z,4.30
2019-04-21T09:10:16.894Z,3.97
2019-04-21T09:12:49.124Z,4.17
2019-04-21T09:15:19.031Z,4.13
2019-04-21T09:17:44.802Z,3.83
2019-04-21T09:20:24.905Z,5.07
2019-04-21T09:22:54.434Z,4.20
2019-04-21T09:25:33.386Z,4.27
2019-04-21T09:28:01.325Z,4.57
2019-04-21T09:30:17.909Z,5.03
2019-04-21T09:32:54.542Z,5.10
2019-04-21T09:35:26.961Z,5.40
2019-04-21T09:38:02.937Z,5.60
2019-04-21T09:40:34.428Z,6.67
2019-04-21T09:43:04.761Z,5.83
2019-04-21T09:45:31.023Z,5.30
2019-04-21T09:48:09.547Z,4.83
2019-04-21T09:50:37.786Z,5.20
2019-04-21T09:53:16.845Z,5.10
2019-04-21T09:55:46.367Z,5.80
2019-04-21T09:58:23.205Z,5.83
2019-04-21T10:00:55.330Z,5.53
2019-04-21T10:03:17.986Z,5.97
2019-04-21T10:05:50.272Z,5.03
2019-04-21T10:08:19.744Z,5.30
2019-04-21T10:10:49.172Z,5.37
2019-04-21T10:13:19.145Z,4.60
2019-04-21T10:16:03.055Z,5.17
2019-04-21T10:18:34.187Z,5.20
2019-04-21T10:21:03.603Z,5.47
2019-04-21T10:23:37.168Z,5.57
2019-04-21T10:26:08.533Z,5.77
2019-04-21T10:28:39.130Z,6.20
2019-04-21T10:31:14.312Z,5.33
2019-04-21T10:33:42.460Z,5.70
2019-04-21T10:36:15.339Z,6.30
2019-04-21T10:38:51.283Z,5.80
2019-04-21T10:41:19.261Z,6.10
2019-04-21T10:43:49.373Z,6.80
2019-04-21T10:46:20.342Z,6.27
2019-04-21T10:48:50.833Z,5.60
2019-04-21T10:51:23.093Z,5.62
2019-04-21T10:53:57.814Z,6.30
2019-04-21T10:56:33.245Z,6.20
2019-04-21T10:59:00.267Z,6.13
2019-04-21T11:01:34.451Z,5.67
2019-04-21T11:04:18.936Z,5.43
2019-04-21T11:06:40.312Z,4.90
2019-04-21T11:09:11.263Z,5.80
2019-04-21T11:11:45.035Z,5.17
2019-04-21T11:14:15.494Z,6.13
2019-04-21T11:16:47.511Z,5.83
2019-04-21T11:19:20.050Z,6.03
2019-04-21T11:21:49.512Z,6.00
2019-04-21T11:24:18.925Z,5.50
2019-04-21T11:26:49.721Z,5.77
2019-04-21T11:29:21.297Z,5.20
2019-04-21T11:31:51.402Z,5.17
2019-04-21T11:34:22.988Z,5.13
2019-04-21T11:36:54.281Z,4.90
2019-04-21T11:39:37.562Z,5.33
2019-04-21T11:41:59.641Z,6.07
2019-04-21T11:44:29.228Z,6.23
2019-04-21T11:46:58.664Z,6.30
2019-04-21T11:49:31.970Z,5.50
2019-04-21T11:52:00.690Z,6.10
2019-04-21T11:54:31.111Z,5.33
2019-04-21T11:57:03.477Z,5.27
2019-04-21T11:59:33.372Z,5.30
2019-04-21T12:02:03.614Z,4.70
2019-04-21T12:04:33.810Z,4.90
2019-04-21T12:07:04.999Z,5.57
2019-04-21T12:09:35.549Z,5.60
2019-04-21T12:12:07.393Z,5.10
2019-04-21T12:14:36.873Z,6.33
2019-04-21T12:17:07.899Z,5.60
2019-04-21T12:19:40.784Z,5.60
2019-04-21T12:22:20.188Z,4.40
2019-04-21T12:24:44.985Z,4.70
2019-04-21T12:27:18.284Z,5.27
2019-04-21T12:29:47.979Z,5.33
2019-04-21T12:33:00.390Z,4.20
2019-04-21T12:35:31.018Z,5.42
2019-04-21T12:38:01.016Z,5.30
2019-04-21T12:40:32.594Z,5.53
2019-04-21T12:43:03.319Z,5.20
2019-04-21T12:45:33.683Z,5.40
2019-04-21T12:48:04.257Z,5.47
2019-04-21T12:50:34.136Z,5.35
2019-04-21T12:53:16.015Z,5.20
2019-04-21T12:55:48.008Z,5.00
2019-04-21T12:58:19.364Z,5.70
2019-04-21T13:00:49.651Z,5.33
2019-04-21T13:03:21.783Z,4.75
2019-04-21T13:05:51.735Z,4.45
2019-04-21T13:08:21.895Z,4.42
2019-04-21T13:10:53.974Z,3.90
2019-04-21T13:13:23.938Z,4.40
2019-04-21T13:15:55.730Z,4.80
2019-04-21T13:18:33.169Z,5.13
2019-04-21T13:21:04.255Z,4.30
2019-04-21T13:23:36.876Z,4.47
2019-04-21T13:26:08.268Z,4.77
2019-04-21T13:28:40.840Z,5.00
2019-04-21T13:31:26.595Z,4.53
2019-04-21T13:33:57.890Z,4.60
2019-04-21T13:36:27.752Z,5.27
2019-04-21T13:39:39.604Z,4.50
2019-04-21T13:41:50.551Z,5.33
2019-04-21T13:44:13.269Z,4.93
2019-04-21T13:46:45.077Z,4.93
2019-04-21T13:49:17.263Z,4.92
2019-04-21T13:51:48.029Z,4.97
2019-04-21T13:54:18.174Z,5.00
2019-04-21T13:56:50.293Z,4.97
2019-04-21T13:59:22.486Z,6.07
2019-04-21T14:01:52.057Z,5.07
2019-04-21T14:04:25.191Z,5.05
2019-04-21T14:07:00.526Z,4.97
2019-04-21T14:09:40.290Z,5.13
2019-04-21T14:12:03.319Z,5.13
2019-04-21T14:14:34.456Z,5.50
2019-04-21T14:17:05.459Z,5.00
2019-04-21T14:19:39.480Z,5.78
2019-04-21T14:22:11.630Z,5.40
2019-04-21T14:24:41.647Z,4.80
2019-04-21T14:27:12.441Z,4.90
2019-04-21T14:29:43.881Z,4.63
2019-04-21T14:32:16.119Z,4.80
2019-04-21T14:34:48.810Z,4.87
2019-04-21T14:37:20.172Z,5.90
2019-04-21T14:39:57.796Z,4.23
2019-04-21T14:42:24.276Z,5.73
2019-04-21T14:44:57.000Z,4.90
2019-04-21T14:47:35.873Z,5.80
2019-04-21T14:50:26.244Z,5.23
2019-04-21T14:53:11.957Z,6.00
2019-04-21T14:55:43.564Z,5.20
2019-04-21T14:58:17.083Z,5.10
2019-04-21T15:00:57.940Z,5.10
2019-04-21T15:03:32.055Z,5.30
2019-04-21T15:06:07.471Z,5.23
2019-04-21T15:08:37.513Z,5.23
2019-04-21T15:11:08.649Z,5.50
2019-04-21T15:13:38.080Z,5.60
2019-04-21T15:16:13.005Z,5.43
2019-04-21T15:18:44.566Z,5.40
2019-04-21T15:21:15.352Z,4.80
2019-04-21T15:23:44.749Z,5.30
2019-04-21T15:26:18.033Z,4.95
2019-04-21T15:28:50.939Z,5.40
2019-04-21T15:31:30.679Z,5.30
2019-04-21T15:33:55.009Z,5.50
2019-04-21T15:36:27.104Z,6.03
2019-04-21T15:38:58.001Z,4.70
2019-04-21T15:41:28.126Z,4.92
2019-04-21T15:43:59.677Z,4.53
2019-04-21T15:46:31.815Z,5.10
2019-04-21T15:49:00.641Z,4.70
2019-04-21T15:51:29.988Z,4.80
2019-04-21T15:54:00.547Z,5.03
2019-04-21T15:56:44.857Z,4.70
2019-04-21T15:59:30.570Z,4.87
2019-04-21T16:02:19.398Z,5.03
2019-04-21T16:04:48.733Z,4.43
2019-04-21T16:07:20.479Z,5.23
2019-04-21T16:09:50.420Z,4.33
2019-04-21T16:12:22.865Z,4.87
2019-04-21T16:14:54.493Z,4.60
2019-04-21T16:17:27.498Z,5.07
2019-04-21T16:20:01.880Z,4.65
2019-04-21T16:22:32.984Z,4.77
2019-04-21T16:25:05.180Z,4.63
2019-04-21T16:27:35.212Z,4.20
2019-04-21T16:30:06.186Z,4.70
2019-04-21T16:32:36.328Z,4.43
2019-04-21T16:35:10.477Z,4.10
2019-04-21T16:37:39.423Z,4.33
2019-04-21T16:40:11.672Z,4.17
2019-04-21T16:42:42.536Z,4.50
2019-04-21T16:45:12.976Z,4.80
2019-04-21T16:47:47.376Z,4.40
2019-04-21T16:50:17.213Z,4.94
2019-04-21T16:52:52.141Z,5.27
2019-04-21T16:55:45.017Z,4.70
2019-04-21T16:58:29.164Z,5.12
2019-04-21T17:01:08.347Z,4.70
2019-04-21T17:03:34.577Z,5.03
2019-04-21T17:06:05.118Z,4.73
2019-04-21T17:08:34.716Z,4.75
2019-04-21T17:13:38.312Z,4.27
2019-04-21T17:16:21.018Z,4.80
2019-04-21T17:16:36.495Z,4.30
2019-04-21T17:18:51.378Z,4.20
2019-04-21T17:21:11.128Z,4.50
2019-04-21T17:24:00.197Z,4.37
2019-04-21T17:26:31.327Z,4.17
2019-04-21T17:29:03.011Z,4.23
2019-04-21T17:31:34.027Z,4.07
2019-04-21T17:34:11.886Z,4.10
2019-04-21T17:36:35.122Z,4.22
2019-04-21T17:39:06.886Z,4.50
2019-04-21T17:41:42.520Z,3.97
2019-04-21T17:44:08.734Z,4.00
2019-04-21T17:46:47.796Z,6.47
2019-04-21T17:49:11.108Z,16.90
2019-04-21T17:52:02.273Z,14.33
2019-04-21T17:54:42.864Z,9.27
2019-04-21T17:57:26.731Z,11.50
2019-04-21T18:00:04.194Z,10.17
2019-04-21T18:02:38.611Z,46.13
2019-04-21T18:05:03.757Z,26.27
2019-04-21T18:07:49.189Z,21.73
2019-04-21T18:10:05.045Z,13.67
2019-04-21T18:12:33.722Z,38.17
2019-04-21T18:15:00.212Z,10.17
2019-04-21T18:17:20.960Z,9.27
2019-04-21T18:19:55.092Z,25.20
2019-04-21T18:22:46.935Z,8.00
2019-04-21T18:25:28.488Z,7.08
2019-04-21T18:27:50.399Z,12.55
2019-04-21T18:31:14.439Z,21.47
2019-04-21T18:34:16.311Z,6.53
2019-04-21T18:36:52.485Z,6.10
2019-04-21T18:39:52.540Z,6.90
2019-04-21T18:42:40.547Z,9.50
2019-04-21T18:45:45.133Z,10.30
2019-04-21T18:48:18.947Z,24.20
2019-04-21T18:51:06.384Z,22.93
2019-04-21T18:54:17.373Z,14.67
2019-04-21T18:56:25.313Z,17.02
2019-04-21T18:58:55.961Z,10.77
2019-04-21T19:01:35.217Z,9.57
2019-04-21T19:04:14.292Z,10.17
2019-04-21T19:06:58.398Z,7.37
2019-04-21T19:09:35.883Z,6.60
2019-04-21T19:11:59.596Z,7.37
2019-04-21T19:14:32.078Z,7.30
2019-04-21T19:17:33.885Z,6.40
2019-04-21T19:19:50.429Z,5.63
2019-04-21T19:22:11.816Z,5.73
2019-04-21T19:24:59.501Z,5.43
2019-04-21T19:27:19.251Z,5.23
2019-04-21T19:29:57.291Z,4.97
2019-04-21T19:32:22.135Z,5.30
2019-04-21T19:34:35.910Z,5.60
2019-04-21T19:37:10.940Z,5.53
2019-04-21T19:39:42.871Z,5.30
2019-04-21T19:42:18.628Z,6.33
2019-04-21T19:44:52.107Z,5.37
2019-04-21T19:47:28.229Z,5.30
2019-04-21T19:50:00.360Z,5.20
2019-04-21T19:52:23.700Z,4.80
2019-04-21T19:54:46.534Z,5.03
2019-04-21T19:57:13.265Z,4.87
2019-04-21T19:59:48.600Z,5.83
2019-04-21T20:02:18.670Z,5.80
2019-04-21T20:04:54.216Z,5.40
2019-04-21T20:07:38.232Z,5.33
2019-04-21T20:10:18.705Z,5.87
2019-04-21T20:12:45.275Z,5.77
2019-04-21T20:15:26.082Z,5.13
2019-04-21T20:17:48.338Z,5.87
2019-04-21T20:20:11.116Z,6.17
2019-04-21T20:22:45.017Z,5.67
2019-04-21T20:25:16.104Z,5.20
2019-04-21T20:27:54.305Z,5.37
2019-04-21T20:30:32.759Z,5.73
2019-04-21T20:33:27.988Z,5.20
2019-04-21T20:35:44.782Z,5.40
2019-04-21T20:38:08.961Z,6.23
2019-04-21T20:40:36.254Z,6.07
2019-04-21T20:43:23.668Z,6.30
2019-04-21T20:45:58.070Z,6.40
2019-04-21T20:48:11.484Z,7.20
2019-04-21T20:50:49.305Z,7.10
2019-04-21T20:53:19.858Z,6.17
2019-04-21T20:55:48.402Z,6.23
2019-04-21T20:58:23.956Z,6.37
2019-04-21T21:01:19.017Z,5.67
2019-04-21T21:03:30.114Z,5.80
2019-04-21T21:05:54.333Z,6.15
2019-04-21T21:08:35.698Z,5.85
2019-04-21T21:11:00.306Z,6.73
2019-04-21T21:13:36.703Z,6.70
2019-04-21T21:16:13.966Z,6.80
2019-04-21T21:18:56.442Z,6.90
2019-04-21T21:21:11.154Z,5.70
2019-04-21T21:23:48.040Z,6.57
2019-04-21T21:26:23.421Z,6.90
2019-04-21T21:28:43.256Z,8.13
2019-04-21T21:31:17.732Z,6.50
2019-04-21T21:34:03.497Z,6.55
2019-04-21T21:36:25.137Z,6.93
2019-04-21T21:39:02.476Z,7.40
2019-04-21T21:41:25.795Z,7.67
2019-04-21T21:43:59.027Z,7.17
2019-04-21T21:46:43.019Z,7.10
2019-04-21T21:49:06.131Z,7.25
2019-04-21T21:51:39.771Z,7.40
2019-04-21T21:53:59.015Z,6.30
2019-04-21T21:56:34.255Z,7.10
2019-04-21T21:59:12.974Z,7.13
2019-04-21T22:01:44.096Z,6.35
2019-04-21T22:04:18.922Z,6.43
2019-04-21T22:06:50.700Z,6.47
2019-04-21T22:09:16.631Z,6.13
2019-04-21T22:11:53.569Z,7.17
2019-04-21T22:14:28.257Z,6.30
2019-04-21T22:17:10.904Z,6.70
2019-04-21T22:19:41.736Z,6.20
2019-04-21T22:22:21.051Z,6.08
2019-04-21T22:24:53.367Z,7.10
2019-04-21T22:27:16.952Z,7.10
2019-04-21T22:29:51.611Z,6.83
2019-04-21T22:32:24.501Z,7.60
2019-04-21T22:34:56.556Z,7.30
2019-04-21T22:37:39.222Z,7.08
2019-04-21T22:40:04.511Z,7.10
2019-04-21T22:42:31.756Z,7.37
2019-04-21T22:44:56.767Z,6.73
2019-04-21T22:47:31.976Z,6.60
2019-04-21T22:49:59.127Z,6.73
2019-04-21T22:52:29.944Z,6.30
2019-04-21T22:55:03.216Z,7.13
2019-04-21T22:57:39.116Z,6.53
2019-04-21T23:00:05.193Z,6.75
2019-04-21T23:02:35.060Z,6.25
2019-04-21T23:05:04.513Z,6.95
2019-04-21T23:07:44.144Z,7.25
2019-04-21T23:10:09.414Z,7.10
2019-04-21T23:12:42.061Z,6.00
2019-04-21T23:15:18.586Z,7.00
2019-04-21T23:17:59.530Z,6.13
2019-04-21T23:20:39.344Z,6.90
2019-04-21T23:23:11.781Z,6.30
2019-04-21T23:25:40.552Z,6.90
2019-04-21T23:28:10.116Z,6.63
2019-04-21T23:30:52.944Z,6.77
2019-04-21T23:33:04.935Z,7.00
2019-04-21T23:35:35.195Z,6.97
2019-04-21T23:38:04.808Z,6.60
2019-04-21T23:40:32.913Z,6.73
2019-04-21T23:43:10.639Z,7.20
2019-04-21T23:45:40.910Z,6.53
2019-04-21T23:48:23.837Z,7.20
2019-04-21T23:50:51.435Z,7.50
2019-04-21T23:53:19.596Z,6.53
2019-04-21T23:55:50.303Z,7.63
2019-04-21T23:58:27.933Z,6.90
